createdAt,value
2022-08-20T00:00:02.496Z,20.93
2022-08-20T00:00:12.587Z,20.93
2022-08-20T00:00:22.673Z,20.91
2022-08-20T00:00:32.773Z,20.91
2022-08-20T00:00:42.938Z,20.93
2022-08-20T00:00:52.940Z,20.93
2022-08-20T00:01:03.905Z,20.88
2022-08-20T00:01:13.965Z,20.91
2022-08-20T00:01:24.111Z,20.91
2022-08-20T00:01:34.261Z,20.91
2022-08-20T00:01:44.377Z,20.90
2022-08-20T00:01:54.569Z,20.90
2022-08-20T00:02:04.578Z,20.90
2022-08-20T00:02:14.751Z,20.90
2022-08-20T00:02:24.844Z,20.90
2022-08-20T00:02:34.931Z,20.88
2022-08-20T00:02:45.064Z,20.88
2022-08-20T00:02:55.153Z,20.87
2022-08-20T00:03:05.235Z,20.88
2022-08-20T00:03:15.323Z,20.88
2022-08-20T00:03:25.615Z,20.87
2022-08-20T00:03:35.473Z,20.87
2022-08-20T00:03:51.715Z,20.87
2022-08-20T00:03:56.563Z,20.83
2022-08-20T00:04:07.523Z,20.85
2022-08-20T00:04:17.613Z,20.87
2022-08-20T00:04:27.684Z,20.87
2022-08-20T00:04:39.568Z,20.87
2022-08-20T00:04:47.971Z,20.85
2022-08-20T00:04:58.044Z,20.83
2022-08-20T00:05:08.122Z,20.85
2022-08-20T00:05:18.205Z,20.85
2022-08-20T00:05:28.294Z,20.85
2022-08-20T00:05:38.363Z,20.85
2022-08-20T00:05:48.444Z,20.87
2022-08-20T00:05:58.514Z,20.85
2022-08-20T00:06:08.592Z,20.87
2022-08-20T00:06:18.663Z,20.87
2022-08-20T00:06:28.740Z,20.87
2022-08-20T00:06:38.812Z,20.87
2022-08-20T00:06:49.034Z,20.85
2022-08-20T00:06:58.924Z,20.85
2022-08-20T00:07:09.003Z,20.83
2022-08-20T00:07:19.093Z,20.83
2022-08-20T00:07:29.224Z,20.82
2022-08-20T00:07:39.294Z,20.82
2022-08-20T00:07:49.443Z,20.83
2022-08-20T00:07:59.370Z,20.82
2022-08-20T00:08:09.454Z,20.82
2022-08-20T00:08:19.563Z,20.83
2022-08-20T00:08:29.654Z,20.82
2022-08-20T00:08:39.723Z,20.81
2022-08-20T00:08:49.800Z,20.82
2022-08-20T00:08:59.872Z,20.82
2022-08-20T00:09:09.932Z,20.82
2022-08-20T00:09:20.069Z,20.82
2022-08-20T00:09:30.125Z,20.83
2022-08-20T00:09:40.903Z,20.81
2022-08-20T00:09:51.002Z,20.81
2022-08-20T00:10:01.113Z,20.82
2022-08-20T00:10:11.186Z,20.82
2022-08-20T00:10:21.243Z,20.82
2022-08-20T00:10:31.332Z,20.82
2022-08-20T00:10:41.395Z,20.81
2022-08-20T00:10:54.989Z,20.82
2022-08-20T00:11:01.593Z,20.79
2022-08-20T00:11:11.662Z,20.81
2022-08-20T00:11:21.733Z,20.82
2022-08-20T00:11:31.783Z,20.82
2022-08-20T00:11:41.871Z,20.81
2022-08-20T00:11:51.945Z,20.82
2022-08-20T00:12:02.011Z,20.83
2022-08-20T00:12:12.103Z,20.82
2022-08-20T00:12:22.181Z,20.83
2022-08-20T00:12:32.269Z,20.83
2022-08-20T00:12:42.354Z,20.83
2022-08-20T00:12:52.432Z,20.83
2022-08-20T00:13:02.523Z,20.82
2022-08-20T00:13:14.000Z,20.83
2022-08-20T00:13:23.566Z,20.81
2022-08-20T00:13:33.642Z,20.81
2022-08-20T00:13:43.736Z,20.82
2022-08-20T00:13:53.825Z,20.82
2022-08-20T00:14:03.914Z,20.81
2022-08-20T00:14:13.983Z,20.81
2022-08-20T00:14:24.075Z,20.81
2022-08-20T00:14:34.258Z,20.79
2022-08-20T00:14:44.344Z,20.82
2022-08-20T00:14:54.411Z,20.81
2022-08-20T00:15:04.486Z,20.81
2022-08-20T00:15:14.562Z,20.81
2022-08-20T00:15:24.644Z,20.79
2022-08-20T00:15:34.746Z,20.81
2022-08-20T00:15:44.874Z,20.79
2022-08-20T00:15:55.034Z,20.79
2022-08-20T00:16:05.103Z,20.81
2022-08-20T00:16:15.175Z,20.78
2022-08-20T00:16:25.263Z,20.79
2022-08-20T00:16:35.333Z,20.81
2022-08-20T00:16:45.454Z,20.79
2022-08-20T00:16:55.586Z,20.78
2022-08-20T00:17:05.802Z,20.78
2022-08-20T00:17:15.883Z,20.78
2022-08-20T00:17:25.943Z,20.81
2022-08-20T00:17:36.024Z,20.78
2022-08-20T00:17:46.103Z,20.78
2022-08-20T00:17:56.391Z,20.78
2022-08-20T00:18:06.195Z,20.78
2022-08-20T00:18:16.283Z,20.78
2022-08-20T00:18:26.353Z,20.78
2022-08-20T00:18:36.433Z,20.78
2022-08-20T00:18:46.503Z,20.78
2022-08-20T00:18:56.585Z,20.78
2022-08-20T00:19:06.662Z,20.79
2022-08-20T00:19:16.742Z,20.78
2022-08-20T00:19:27.125Z,20.78
2022-08-20T00:19:36.874Z,20.78
2022-08-20T00:19:46.970Z,20.78
2022-08-20T00:19:57.066Z,20.78
2022-08-20T00:20:07.145Z,20.78
2022-08-20T00:20:17.224Z,20.78
2022-08-20T00:20:27.312Z,20.76
2022-08-20T00:20:37.393Z,20.76
2022-08-20T00:20:47.393Z,20.75
2022-08-20T00:20:57.483Z,20.76
2022-08-20T00:21:07.544Z,20.75
2022-08-20T00:21:18.894Z,20.78
2022-08-20T00:21:27.663Z,20.76
2022-08-20T00:21:37.831Z,20.76
2022-08-20T00:21:47.927Z,20.75
2022-08-20T00:21:58.535Z,20.75
2022-08-20T00:22:08.164Z,20.75
2022-08-20T00:22:18.252Z,20.75
2022-08-20T00:22:28.328Z,20.75
2022-08-20T00:22:38.402Z,20.75
2022-08-20T00:22:48.473Z,20.75
2022-08-20T00:22:58.565Z,20.73
2022-08-20T00:23:10.592Z,20.73
2022-08-20T00:23:18.917Z,20.72
2022-08-20T00:23:29.004Z,20.75
2022-08-20T00:23:39.063Z,20.73
2022-08-20T00:23:49.175Z,20.73
2022-08-20T00:23:59.257Z,20.73
2022-08-20T00:24:09.365Z,20.73
2022-08-20T00:24:19.444Z,20.75
2022-08-20T00:24:29.563Z,20.72
2022-08-20T00:24:39.634Z,20.73
2022-08-20T00:24:49.723Z,20.73
2022-08-20T00:24:59.862Z,20.75
2022-08-20T00:25:09.985Z,20.72
2022-08-20T00:25:20.074Z,20.73
2022-08-20T00:25:30.168Z,20.73
2022-08-20T00:25:40.250Z,20.75
2022-08-20T00:25:50.361Z,20.73
2022-08-20T00:26:00.434Z,20.75
2022-08-20T00:26:10.522Z,20.75
2022-08-20T00:26:20.614Z,20.73
2022-08-20T00:26:30.726Z,20.75
2022-08-20T00:26:52.180Z,20.75
2022-08-20T00:26:52.608Z,20.73
2022-08-20T00:27:01.956Z,20.73
2022-08-20T00:27:12.054Z,20.75
2022-08-20T00:27:22.145Z,20.75
2022-08-20T00:27:32.243Z,20.75
2022-08-20T00:27:42.331Z,20.75
2022-08-20T00:27:52.411Z,20.75
2022-08-20T00:28:02.505Z,20.75
2022-08-20T00:28:12.584Z,20.75
2022-08-20T00:28:22.690Z,20.75
2022-08-20T00:28:32.772Z,20.76
2022-08-20T00:28:42.933Z,20.75
2022-08-20T00:28:52.854Z,20.75
2022-08-20T00:29:02.926Z,20.75
2022-08-20T00:29:13.016Z,20.75
2022-08-20T00:29:23.233Z,20.75
2022-08-20T00:29:33.324Z,20.76
2022-08-20T00:29:43.411Z,20.76
2022-08-20T00:29:53.503Z,20.75
2022-08-20T00:30:03.590Z,20.75
2022-08-20T00:30:13.675Z,20.75
2022-08-20T00:30:23.763Z,20.75
2022-08-20T00:30:33.913Z,20.75
2022-08-20T00:30:44.003Z,20.73
2022-08-20T00:30:54.094Z,20.76
2022-08-20T00:31:04.184Z,20.76
2022-08-20T00:31:14.270Z,20.75
2022-08-20T00:31:24.343Z,20.76
2022-08-20T00:31:34.434Z,20.76
2022-08-20T00:31:44.576Z,20.76
2022-08-20T00:31:54.663Z,20.76
2022-08-20T00:32:04.743Z,20.76
2022-08-20T00:32:14.834Z,20.78
2022-08-20T00:32:24.923Z,20.76
2022-08-20T00:32:35.003Z,20.76
2022-08-20T00:32:45.090Z,20.78
2022-08-20T00:32:55.175Z,20.78
2022-08-20T00:33:05.262Z,20.78
2022-08-20T00:33:15.345Z,20.78
2022-08-20T00:33:25.433Z,20.78
2022-08-20T00:33:35.515Z,20.78
2022-08-20T00:33:45.597Z,20.78
2022-08-20T00:33:55.670Z,20.78
2022-08-20T00:34:05.772Z,20.78
2022-08-20T00:34:15.843Z,20.78
2022-08-20T00:34:26.036Z,20.79
2022-08-20T00:34:36.126Z,20.78
2022-08-20T00:34:46.205Z,20.78
2022-08-20T00:34:56.273Z,20.78
2022-08-20T00:35:06.353Z,20.76
2022-08-20T00:35:16.453Z,20.75
2022-08-20T00:35:26.531Z,20.75
2022-08-20T00:35:36.621Z,20.75
2022-08-20T00:35:46.702Z,20.75
2022-08-20T00:35:56.778Z,20.75
2022-08-20T00:36:06.866Z,20.75
2022-08-20T00:36:16.961Z,20.75
2022-08-20T00:36:32.884Z,20.73
2022-08-20T00:36:38.004Z,20.72
2022-08-20T00:36:48.012Z,20.72
2022-08-20T00:36:58.156Z,20.73
2022-08-20T00:37:08.274Z,20.72
2022-08-20T00:37:18.384Z,20.72
2022-08-20T00:37:28.561Z,20.71
2022-08-20T00:37:38.717Z,20.71
2022-08-20T00:37:48.785Z,20.72
2022-08-20T00:38:00.813Z,20.71
2022-08-20T00:38:08.844Z,20.72
2022-08-20T00:38:18.954Z,20.71
2022-08-20T00:38:29.083Z,20.69
2022-08-20T00:38:39.193Z,20.71
2022-08-20T00:38:49.302Z,20.71
2022-08-20T00:38:59.412Z,20.69
2022-08-20T00:39:09.546Z,20.69
2022-08-20T00:39:19.654Z,20.68
2022-08-20T00:39:29.775Z,20.69
2022-08-20T00:39:39.956Z,20.69
2022-08-20T00:39:50.125Z,20.68
2022-08-20T00:40:00.478Z,20.68
2022-08-20T00:40:22.177Z,20.69
2022-08-20T00:40:22.230Z,20.64
2022-08-20T00:40:31.335Z,20.66
2022-08-20T00:40:41.484Z,20.68
2022-08-20T00:40:51.592Z,20.68
2022-08-20T00:41:01.701Z,20.66
2022-08-20T00:41:11.802Z,20.66
2022-08-20T00:41:21.914Z,20.64
2022-08-20T00:41:32.044Z,20.64
2022-08-20T00:41:42.164Z,20.64
2022-08-20T00:41:52.293Z,20.64
2022-08-20T00:42:02.444Z,20.64
2022-08-20T00:42:12.564Z,20.64
2022-08-20T00:42:22.715Z,20.64
2022-08-20T00:42:32.747Z,20.63
2022-08-20T00:42:42.903Z,20.64
2022-08-20T00:42:53.144Z,20.60
2022-08-20T00:43:03.224Z,20.63
2022-08-20T00:43:13.324Z,20.63
2022-08-20T00:43:23.413Z,20.61
2022-08-20T00:43:33.504Z,20.61
2022-08-20T00:43:43.586Z,20.60
2022-08-20T00:43:53.670Z,20.60
2022-08-20T00:44:03.924Z,20.61
2022-08-20T00:44:14.029Z,20.60
2022-08-20T00:44:24.123Z,20.60
2022-08-20T00:44:34.212Z,20.58
2022-08-20T00:44:44.302Z,20.61
2022-08-20T00:44:54.382Z,20.60
2022-08-20T00:45:04.463Z,20.60
2022-08-20T00:45:14.555Z,20.60
2022-08-20T00:45:24.633Z,20.57
2022-08-20T00:45:34.715Z,20.58
2022-08-20T00:45:44.795Z,20.58
2022-08-20T00:45:54.884Z,20.58
2022-08-20T00:46:04.972Z,20.58
2022-08-20T00:46:15.061Z,20.60
2022-08-20T00:46:31.033Z,20.57
2022-08-20T00:46:36.103Z,20.54
2022-08-20T00:46:46.203Z,20.56
2022-08-20T00:46:56.301Z,20.56
2022-08-20T00:47:06.442Z,20.56
2022-08-20T00:47:16.535Z,20.56
2022-08-20T00:47:26.653Z,20.54
2022-08-20T00:47:36.775Z,20.56
2022-08-20T00:47:51.347Z,20.54
2022-08-20T00:47:57.167Z,20.54
2022-08-20T00:48:07.004Z,20.53
2022-08-20T00:48:17.163Z,20.56
2022-08-20T00:48:27.255Z,20.54
2022-08-20T00:48:37.336Z,20.56
2022-08-20T00:48:47.414Z,20.54
2022-08-20T00:48:57.523Z,20.54
2022-08-20T00:49:07.624Z,20.53
2022-08-20T00:49:17.725Z,20.54
2022-08-20T00:49:27.813Z,20.54
2022-08-20T00:49:37.905Z,20.54
2022-08-20T00:49:47.974Z,20.54
2022-08-20T00:49:58.063Z,20.53
2022-08-20T00:50:08.144Z,20.53
2022-08-20T00:50:18.224Z,20.54
2022-08-20T00:50:28.316Z,20.53
2022-08-20T00:50:38.394Z,20.54
2022-08-20T00:50:48.486Z,20.53
2022-08-20T00:51:41.216Z,20.50
2022-08-20T00:51:51.293Z,20.50
2022-08-20T00:52:01.366Z,20.50
2022-08-20T00:52:11.450Z,20.48
2022-08-20T00:52:21.544Z,20.50
2022-08-20T00:52:31.619Z,20.50
2022-08-20T00:52:41.707Z,20.48
2022-08-20T00:52:52.675Z,20.46
2022-08-20T00:53:02.796Z,20.48
2022-08-20T00:53:12.848Z,20.50
2022-08-20T00:53:22.944Z,20.48
2022-08-20T00:53:33.046Z,20.48
2022-08-20T00:53:43.136Z,20.48
2022-08-20T00:53:53.227Z,20.48
2022-08-20T00:54:03.313Z,20.50
2022-08-20T00:54:13.406Z,20.48
2022-08-20T00:54:23.488Z,20.48
2022-08-20T00:54:33.577Z,20.46
2022-08-20T00:54:43.677Z,20.46
2022-08-20T00:54:53.816Z,20.46
2022-08-20T00:55:03.903Z,20.48
2022-08-20T00:55:13.986Z,20.44
2022-08-20T00:55:27.392Z,20.46
2022-08-20T00:55:35.025Z,20.42
2022-08-20T00:55:45.107Z,20.44
2022-08-20T00:55:55.228Z,20.42
2022-08-20T00:56:05.316Z,20.42
2022-08-20T00:56:15.426Z,20.42
2022-08-20T00:56:25.535Z,20.41
2022-08-20T00:56:35.626Z,20.42
2022-08-20T00:56:45.717Z,20.41
2022-08-20T00:56:55.803Z,20.41
2022-08-20T00:57:05.866Z,20.42
2022-08-20T00:57:15.956Z,20.41
2022-08-20T00:57:26.061Z,20.40
2022-08-20T00:57:54.788Z,20.41
2022-08-20T00:58:01.280Z,20.38
2022-08-20T00:58:01.426Z,20.38
2022-08-20T00:58:08.478Z,20.40
2022-08-20T00:58:18.236Z,20.41
2022-08-20T00:58:28.323Z,20.40
2022-08-20T00:58:38.406Z,20.40
2022-08-20T00:58:48.496Z,20.40
2022-08-20T00:58:58.581Z,20.40
2022-08-20T00:59:08.656Z,20.41
2022-08-20T00:59:18.750Z,20.38
2022-08-20T00:59:28.827Z,20.40
2022-08-20T00:59:38.926Z,20.38
2022-08-20T00:59:49.006Z,20.40
2022-08-20T00:59:59.088Z,20.40
2022-08-20T01:00:09.176Z,20.38
2022-08-20T01:00:19.260Z,20.38
2022-08-20T01:00:29.376Z,20.38
2022-08-20T01:00:39.456Z,20.38
2022-08-20T01:00:49.656Z,20.38
2022-08-20T01:00:59.758Z,20.40
2022-08-20T01:01:09.870Z,20.37
2022-08-20T01:01:20.036Z,20.38
2022-08-20T01:01:30.199Z,20.38
2022-08-20T01:01:55.247Z,20.40
2022-08-20T01:01:55.406Z,20.35
2022-08-20T01:02:02.296Z,20.38
2022-08-20T01:02:12.244Z,20.38
2022-08-20T01:02:22.254Z,20.38
2022-08-20T01:02:32.337Z,20.38
2022-08-20T01:02:42.417Z,20.38
2022-08-20T01:02:52.494Z,20.38
2022-08-20T01:03:02.624Z,20.38
2022-08-20T01:03:12.696Z,20.38
2022-08-20T01:03:22.786Z,20.40
2022-08-20T01:03:32.856Z,20.38
2022-08-20T01:03:42.950Z,20.38
2022-08-20T01:03:53.037Z,20.38
2022-08-20T01:04:03.128Z,20.40
2022-08-20T01:04:13.226Z,20.38
2022-08-20T01:04:23.326Z,20.38
2022-08-20T01:04:33.425Z,20.38
2022-08-20T01:04:43.557Z,20.37
2022-08-20T01:04:53.675Z,20.37
2022-08-20T01:05:03.756Z,20.35
2022-08-20T01:05:13.858Z,20.37
2022-08-20T01:05:29.480Z,20.35
2022-08-20T01:05:34.896Z,20.34
2022-08-20T01:05:44.978Z,20.37
2022-08-20T01:05:55.076Z,20.35
2022-08-20T01:06:05.167Z,20.35
2022-08-20T01:06:15.254Z,20.37
2022-08-20T01:06:25.367Z,20.35
2022-08-20T01:06:35.455Z,20.35
2022-08-20T01:06:45.566Z,20.35
2022-08-20T01:06:55.653Z,20.34
2022-08-20T01:07:05.739Z,20.34
2022-08-20T01:07:15.826Z,20.35
2022-08-20T01:07:25.894Z,20.35
2022-08-20T01:07:35.986Z,20.34
2022-08-20T01:07:46.087Z,20.34
2022-08-20T01:07:56.363Z,20.34
2022-08-20T01:08:06.185Z,20.34
2022-08-20T01:08:16.284Z,20.33
2022-08-20T01:08:26.358Z,20.34
2022-08-20T01:08:36.485Z,20.33
2022-08-20T01:08:46.577Z,20.34
2022-08-20T01:08:56.674Z,20.34
2022-08-20T01:09:06.758Z,20.34
2022-08-20T01:09:16.855Z,20.35
2022-08-20T01:09:49.657Z,20.35
2022-08-20T01:09:57.432Z,20.31
2022-08-20T01:09:57.806Z,20.33
2022-08-20T01:09:59.833Z,20.33
2022-08-20T01:10:09.907Z,20.34
2022-08-20T01:10:19.996Z,20.34
2022-08-20T01:10:30.099Z,20.34
2022-08-20T01:10:40.186Z,20.34
2022-08-20T01:10:50.208Z,20.35
2022-08-20T01:11:00.315Z,20.35
2022-08-20T01:11:10.416Z,20.35
2022-08-20T01:11:20.520Z,20.35
2022-08-20T01:11:30.577Z,20.37
2022-08-20T01:11:41.545Z,20.35
2022-08-20T01:11:51.616Z,20.37
2022-08-20T01:12:01.686Z,20.38
2022-08-20T01:12:11.745Z,20.38
2022-08-20T01:12:21.857Z,20.38
2022-08-20T01:12:31.949Z,20.38
2022-08-20T01:12:42.018Z,20.40
2022-08-20T01:12:53.232Z,20.38
2022-08-20T01:13:03.107Z,20.37
2022-08-20T01:13:13.189Z,20.37
2022-08-20T01:13:23.245Z,20.40
2022-08-20T01:13:33.297Z,20.38
2022-08-20T01:13:43.366Z,20.40
2022-08-20T01:13:53.434Z,20.40
2022-08-20T01:14:03.486Z,20.40
2022-08-20T01:14:13.540Z,20.40
2022-08-20T01:14:23.681Z,20.38
2022-08-20T01:14:33.714Z,20.40
2022-08-20T01:14:43.752Z,20.41
2022-08-20T01:14:53.816Z,20.38
2022-08-20T01:15:03.879Z,20.40
2022-08-20T01:15:13.926Z,20.38
2022-08-20T01:15:26.950Z,20.38
2022-08-20T01:15:34.947Z,20.35
2022-08-20T01:15:45.006Z,20.38
2022-08-20T01:15:55.077Z,20.38
2022-08-20T01:16:05.148Z,20.38
2022-08-20T01:16:15.228Z,20.37
2022-08-20T01:16:25.286Z,20.38
2022-08-20T01:16:35.445Z,20.38
2022-08-20T01:16:46.423Z,20.37
2022-08-20T01:16:56.538Z,20.38
2022-08-20T01:17:06.617Z,20.38
2022-08-20T01:17:16.706Z,20.40
2022-08-20T01:17:26.786Z,20.38
2022-08-20T01:17:36.877Z,20.40
2022-08-20T01:17:46.954Z,20.40
2022-08-20T01:17:57.158Z,20.40
2022-08-20T01:18:07.139Z,20.40
2022-08-20T01:18:17.216Z,20.40
2022-08-20T01:18:27.306Z,20.40
2022-08-20T01:18:37.386Z,20.41
2022-08-20T01:18:47.481Z,20.41
2022-08-20T01:18:57.600Z,20.41
2022-08-20T01:19:29.349Z,20.41
2022-08-20T01:19:29.506Z,20.38
2022-08-20T01:19:30.341Z,20.40
2022-08-20T01:19:39.757Z,20.42
2022-08-20T01:19:49.854Z,20.41
2022-08-20T01:19:59.927Z,20.41
2022-08-20T01:20:10.027Z,20.41
2022-08-20T01:20:20.118Z,20.42
2022-08-20T01:20:30.207Z,20.41
2022-08-20T01:20:40.314Z,20.41
2022-08-20T01:20:50.396Z,20.42
2022-08-20T01:21:00.486Z,20.41
2022-08-20T01:21:10.567Z,20.41
2022-08-20T01:21:20.677Z,20.42
2022-08-20T01:21:30.757Z,20.41
2022-08-20T01:21:40.837Z,20.40
2022-08-20T01:21:51.942Z,20.42
2022-08-20T01:22:01.026Z,20.41
2022-08-20T01:22:11.107Z,20.41
2022-08-20T01:22:21.197Z,20.41
2022-08-20T01:22:31.266Z,20.40
2022-08-20T01:22:41.357Z,20.41
2022-08-20T01:22:51.436Z,20.41
2022-08-20T01:23:01.528Z,20.41
2022-08-20T01:23:11.598Z,20.41
2022-08-20T01:23:21.689Z,20.41
2022-08-20T01:23:31.776Z,20.41
2022-08-20T01:23:41.864Z,20.41
2022-08-20T01:23:51.958Z,20.41
2022-08-20T01:24:02.056Z,20.41
2022-08-20T01:24:12.148Z,20.41
2022-08-20T01:24:22.229Z,20.41
2022-08-20T01:24:32.318Z,20.41
2022-08-20T01:24:42.408Z,20.40
2022-08-20T01:24:52.497Z,20.38
2022-08-20T01:25:02.595Z,20.41
2022-08-20T01:25:12.696Z,20.40
2022-08-20T01:25:23.925Z,20.40
2022-08-20T01:25:32.877Z,20.41
2022-08-20T01:25:42.973Z,20.40
2022-08-20T01:25:53.097Z,20.41
2022-08-20T01:26:03.217Z,20.40
2022-08-20T01:26:13.296Z,20.40
2022-08-20T01:26:23.377Z,20.41
2022-08-20T01:26:33.456Z,20.40
2022-08-20T01:26:43.607Z,20.40
2022-08-20T01:26:53.697Z,20.41
2022-08-20T01:27:03.807Z,20.41
2022-08-20T01:27:13.797Z,20.40
2022-08-20T01:27:23.884Z,20.40
2022-08-20T01:27:34.015Z,20.41
2022-08-20T01:27:44.984Z,20.38
2022-08-20T01:27:55.549Z,20.40
2022-08-20T01:28:05.296Z,20.40
2022-08-20T01:28:15.407Z,20.41
2022-08-20T01:28:25.493Z,20.41
2022-08-20T01:28:35.570Z,20.40
2022-08-20T01:28:45.666Z,20.40
2022-08-20T01:28:55.757Z,20.38
2022-08-20T01:29:05.846Z,20.41
2022-08-20T01:29:15.946Z,20.41
2022-08-20T01:29:26.036Z,20.41
2022-08-20T01:29:36.136Z,20.41
2022-08-20T01:29:46.217Z,20.41
2022-08-20T01:29:56.309Z,20.41
2022-08-20T01:30:06.983Z,20.41
2022-08-20T01:30:16.577Z,20.40
2022-08-20T01:30:26.676Z,20.41
2022-08-20T01:30:36.805Z,20.40
2022-08-20T01:30:46.879Z,20.41
2022-08-20T01:30:56.986Z,20.41
2022-08-20T01:31:07.117Z,20.41
2022-08-20T01:31:17.347Z,20.40
2022-08-20T01:31:27.286Z,20.41
2022-08-20T01:31:37.385Z,20.44
2022-08-20T01:31:47.476Z,20.42
2022-08-20T01:31:57.576Z,20.41
2022-08-20T01:32:07.656Z,20.42
2022-08-20T01:32:17.744Z,20.42
2022-08-20T01:32:27.830Z,20.42
2022-08-20T01:32:37.913Z,20.42
2022-08-20T01:32:47.986Z,20.42
2022-08-20T01:32:58.074Z,20.42
2022-08-20T01:33:08.158Z,20.41
2022-08-20T01:33:18.258Z,20.41
2022-08-20T01:33:28.346Z,20.42
2022-08-20T01:33:38.434Z,20.41
2022-08-20T01:33:48.533Z,20.41
2022-08-20T01:33:58.617Z,20.42
2022-08-20T01:34:08.718Z,20.42
2022-08-20T01:34:18.788Z,20.41
2022-08-20T01:34:28.875Z,20.41
2022-08-20T01:34:38.926Z,20.42
2022-08-20T01:34:48.977Z,20.41
2022-08-20T01:34:59.016Z,20.41
2022-08-20T01:35:09.057Z,20.42
2022-08-20T01:35:19.106Z,20.41
2022-08-20T01:35:29.146Z,20.41
2022-08-20T01:35:39.207Z,20.42
2022-08-20T01:35:49.253Z,20.41
2022-08-20T01:35:59.298Z,20.42
2022-08-20T01:36:09.434Z,20.42
2022-08-20T01:36:19.476Z,20.41
2022-08-20T01:36:29.526Z,20.42
2022-08-20T01:36:43.089Z,20.41
2022-08-20T01:36:50.588Z,20.41
2022-08-20T01:37:00.636Z,20.41
2022-08-20T01:37:10.686Z,20.42
2022-08-20T01:37:20.746Z,20.44
2022-08-20T01:37:31.906Z,20.44
2022-08-20T01:37:40.947Z,20.42
2022-08-20T01:37:50.986Z,20.41
2022-08-20T01:38:01.049Z,20.44
2022-08-20T01:38:11.106Z,20.42
2022-08-20T01:38:21.176Z,20.42
2022-08-20T01:38:31.218Z,20.42
2022-08-20T01:38:41.266Z,20.44
2022-08-20T01:38:54.325Z,20.41
2022-08-20T01:39:02.316Z,20.44
2022-08-20T01:39:12.374Z,20.44
2022-08-20T01:39:22.436Z,20.42
2022-08-20T01:39:32.538Z,20.42
2022-08-20T01:39:42.663Z,20.44
2022-08-20T01:39:52.780Z,20.44
2022-08-20T01:40:02.881Z,20.42
2022-08-20T01:40:12.916Z,20.41
2022-08-20T01:40:22.963Z,20.44
2022-08-20T01:40:33.016Z,20.42
2022-08-20T01:40:43.057Z,20.44
2022-08-20T01:40:53.106Z,20.42
2022-08-20T01:41:03.207Z,20.42
2022-08-20T01:41:13.256Z,20.41
2022-08-20T01:41:28.519Z,20.41
2022-08-20T01:41:34.283Z,20.40
2022-08-20T01:41:44.347Z,20.41
2022-08-20T01:41:54.349Z,20.42
2022-08-20T01:42:04.440Z,20.42
2022-08-20T01:42:14.503Z,20.42
2022-08-20T01:42:24.535Z,20.41
2022-08-20T01:42:34.548Z,20.42
2022-08-20T01:42:53.995Z,20.42
2022-08-20T01:42:59.357Z,20.40
2022-08-20T01:43:05.647Z,20.41
2022-08-20T01:43:15.647Z,20.41
2022-08-20T01:43:25.657Z,20.41
2022-08-20T01:43:37.055Z,20.41
2022-08-20T01:43:45.795Z,20.40
2022-08-20T01:43:55.807Z,20.40
2022-08-20T01:44:05.816Z,20.38
2022-08-20T01:44:18.396Z,20.38
2022-08-20T01:44:26.816Z,20.38
2022-08-20T01:44:36.856Z,20.41
2022-08-20T01:44:46.918Z,20.40
2022-08-20T01:44:57.019Z,20.41
2022-08-20T01:45:07.067Z,20.38
2022-08-20T01:45:17.118Z,20.40
2022-08-20T01:45:27.802Z,20.38
2022-08-20T01:45:37.276Z,20.40
2022-08-20T01:45:47.428Z,20.38
2022-08-20T01:45:57.507Z,20.38
2022-08-20T01:46:07.595Z,20.37
2022-08-20T01:46:17.647Z,20.38
2022-08-20T01:46:27.716Z,20.37
2022-08-20T01:46:43.748Z,20.38
2022-08-20T01:46:48.727Z,20.37
2022-08-20T01:46:58.777Z,20.37
2022-08-20T01:47:08.826Z,20.38
2022-08-20T01:47:18.957Z,20.38
2022-08-20T01:47:29.107Z,20.38
2022-08-20T01:47:39.225Z,20.38
2022-08-20T01:47:49.735Z,20.38
2022-08-20T01:47:59.307Z,20.38
2022-08-20T01:48:09.557Z,20.37
2022-08-20T01:48:19.560Z,20.37
2022-08-20T01:48:29.585Z,20.37
2022-08-20T01:48:39.636Z,20.37
2022-08-20T01:48:49.686Z,20.38
2022-08-20T01:48:59.823Z,20.37
2022-08-20T01:49:13.654Z,20.37
2022-08-20T01:49:23.115Z,20.35
2022-08-20T01:49:30.859Z,20.37
2022-08-20T01:49:40.907Z,20.35
2022-08-20T01:49:50.986Z,20.35
2022-08-20T01:50:01.056Z,20.37
2022-08-20T01:50:11.127Z,20.37
2022-08-20T01:50:21.186Z,20.35
2022-08-20T01:50:31.257Z,20.37
2022-08-20T01:50:41.313Z,20.38
2022-08-20T01:50:51.368Z,20.38
2022-08-20T01:51:01.437Z,20.35
2022-08-20T01:51:11.501Z,20.35
2022-08-20T01:51:21.506Z,20.37
2022-08-20T01:51:31.565Z,20.37
2022-08-20T01:51:41.607Z,20.37
2022-08-20T01:51:51.690Z,20.35
2022-08-20T01:52:01.746Z,20.37
2022-08-20T01:52:11.797Z,20.37
2022-08-20T01:52:21.838Z,20.37
2022-08-20T01:52:31.947Z,20.37
2022-08-20T01:52:41.997Z,20.37
2022-08-20T01:52:52.098Z,20.37
2022-08-20T01:53:02.177Z,20.37
2022-08-20T01:53:12.225Z,20.38
2022-08-20T01:53:22.265Z,20.37
2022-08-20T01:53:32.318Z,20.37
2022-08-20T01:53:42.357Z,20.37
2022-08-20T01:53:52.416Z,20.35
2022-08-20T01:54:02.466Z,20.37
2022-08-20T01:54:12.518Z,20.37
2022-08-20T01:54:22.575Z,20.37
2022-08-20T01:54:32.624Z,20.37
2022-08-20T01:54:42.696Z,20.37
2022-08-20T01:54:52.764Z,20.37
2022-08-20T01:55:02.839Z,20.37
2022-08-20T01:55:12.905Z,20.37
2022-08-20T01:55:22.957Z,20.37
2022-08-20T01:55:32.997Z,20.37
2022-08-20T01:55:43.047Z,20.37
2022-08-20T01:55:53.117Z,20.35
2022-08-20T01:56:03.173Z,20.37
2022-08-20T01:56:13.247Z,20.37
2022-08-20T01:56:23.287Z,20.37
2022-08-20T01:56:33.337Z,20.37
2022-08-20T01:56:43.378Z,20.37
2022-08-20T01:56:53.438Z,20.35
2022-08-20T01:57:03.497Z,20.37
2022-08-20T01:57:13.598Z,20.37
2022-08-20T01:57:23.660Z,20.38
2022-08-20T01:57:33.725Z,20.37
2022-08-20T01:57:43.768Z,20.38
2022-08-20T01:57:53.825Z,20.37
2022-08-20T01:58:03.877Z,20.38
2022-08-20T01:58:13.957Z,20.37
2022-08-20T01:58:24.005Z,20.35
2022-08-20T01:58:34.054Z,20.35
2022-08-20T01:58:44.117Z,20.37
2022-08-20T01:58:56.274Z,20.34
2022-08-20T01:59:04.298Z,20.35
2022-08-20T01:59:14.358Z,20.34
2022-08-20T01:59:24.457Z,20.34
2022-08-20T01:59:34.524Z,20.34
2022-08-20T01:59:44.605Z,20.33
2022-08-20T01:59:54.646Z,20.31
2022-08-20T02:00:04.716Z,20.33
2022-08-20T02:00:19.683Z,20.33
2022-08-20T02:00:25.767Z,20.30
2022-08-20T02:00:35.876Z,20.30
2022-08-20T02:00:45.976Z,20.27
2022-08-20T02:00:56.037Z,20.30
2022-08-20T02:01:06.172Z,20.27
2022-08-20T02:01:16.112Z,20.26
2022-08-20T02:01:26.208Z,20.25
2022-08-20T02:01:46.345Z,20.23
2022-08-20T02:01:47.353Z,20.20
2022-08-20T02:01:57.298Z,20.22
2022-08-20T02:02:07.393Z,20.20
2022-08-20T02:02:17.448Z,20.20
2022-08-20T02:02:27.553Z,20.19
2022-08-20T02:02:37.636Z,20.17
2022-08-20T02:02:47.696Z,20.17
2022-08-20T02:02:57.755Z,20.16
2022-08-20T02:03:07.815Z,20.16
2022-08-20T02:03:17.876Z,20.13
2022-08-20T02:03:27.928Z,20.13
2022-08-20T02:03:41.800Z,20.10
2022-08-20T02:03:48.947Z,20.08
2022-08-20T02:03:58.987Z,20.10
2022-08-20T02:04:09.045Z,20.10
2022-08-20T02:04:20.009Z,20.05
2022-08-20T02:04:30.077Z,20.07
2022-08-20T02:04:40.136Z,20.07
2022-08-20T02:04:50.186Z,20.07
2022-08-20T02:05:00.267Z,20.07
2022-08-20T02:05:10.317Z,20.07
2022-08-20T02:05:20.370Z,20.07
2022-08-20T02:05:30.773Z,20.05
2022-08-20T02:05:40.518Z,20.05
2022-08-20T02:05:50.577Z,20.05
2022-08-20T02:06:00.627Z,20.04
2022-08-20T02:06:10.678Z,20.04
2022-08-20T02:06:20.756Z,20.04
2022-08-20T02:06:30.810Z,20.02
2022-08-20T02:06:40.907Z,20.02
2022-08-20T02:06:56.306Z,20.01
2022-08-20T02:07:02.037Z,20.00
2022-08-20T02:07:12.115Z,20.01
2022-08-20T02:07:22.148Z,20.00
2022-08-20T02:07:32.226Z,20.00
2022-08-20T02:07:42.284Z,20.00
2022-08-20T02:07:52.399Z,19.98
2022-08-20T02:08:02.454Z,19.98
2022-08-20T02:08:12.516Z,19.97
2022-08-20T02:08:22.586Z,19.98
2022-08-20T02:08:32.646Z,19.98
2022-08-20T02:08:42.698Z,19.97
2022-08-20T02:08:52.776Z,19.95
2022-08-20T02:09:02.870Z,19.97
2022-08-20T02:09:16.023Z,19.95
2022-08-20T02:09:23.225Z,19.95
2022-08-20T02:09:33.285Z,19.94
2022-08-20T02:09:43.347Z,19.95
2022-08-20T02:09:53.407Z,19.94
2022-08-20T02:10:03.465Z,19.94
2022-08-20T02:10:13.507Z,19.92
2022-08-20T02:10:23.577Z,19.94
2022-08-20T02:10:33.628Z,19.92
2022-08-20T02:10:43.718Z,19.94
2022-08-20T02:10:53.769Z,19.94
2022-08-20T02:11:03.850Z,19.94